sensor_id;sensor_type;location;lat;lon;timestamp;pressure;altitude;pressure_sealevel;temperature;humidity
18201;BME280;9226;47.858;9.594;2023-04-15T00:02:18;94213.03;;;4.82;61.79
18201;BME280;9226;47.858;9.594;2023-04-15T00:04:47;94214.00;;;4.81;60.01
18201;BME280;9226;47.858;9.594;2023-04-15T00:07:13;94217.09;;;4.75;60.67
18201;BME280;9226;47.858;9.594;2023-04-15T00:09:40;94214.47;;;4.75;59.73
18201;BME280;9226;47.858;9.594;2023-04-15T00:12:05;94226.91;;;4.73;59.19
18201;BME280;9226;47.858;9.594;2023-04-15T00:14:30;94220.44;;;4.66;60.66
18201;BME280;9226;47.858;9.594;2023-04-15T00:16:56;94215.06;;;4.56;61.98
18201;BME280;9226;47.858;9.594;2023-04-15T00:19:22;94220.06;;;4.59;60.52
18201;BME280;9226;47.858;9.594;2023-04-15T00:21:48;94215.88;;;4.57;60.99
18201;BME280;9226;47.858;9.594;2023-04-15T00:24:14;94218.75;;;4.53;61.45
18201;BME280;9226;47.858;9.594;2023-04-15T00:26:39;94220.78;;;4.50;61.37
18201;BME280;9226;47.858;9.594;2023-04-15T00:29:05;94211.97;;;4.51;60.76
18201;BME280;9226;47.858;9.594;2023-04-15T00:31:30;94215.66;;;4.48;60.98
18201;BME280;9226;47.858;9.594;2023-04-15T00:33:56;94219.84;;;4.51;59.85
18201;BME280;9226;47.858;9.594;2023-04-15T00:36:21;94217.81;;;4.55;59.64
18201;BME280;9226;47.858;9.594;2023-04-15T00:38:47;94218.50;;;4.57;59.46
18201;BME280;9226;47.858;9.594;2023-04-15T00:41:13;94215.53;;;4.50;61.39
18201;BME280;9226;47.858;9.594;2023-04-15T00:43:38;94215.53;;;4.50;60.63
18201;BME280;9226;47.858;9.594;2023-04-15T00:46:04;94220.53;;;4.42;61.83
18201;BME280;9226;47.858;9.594;2023-04-15T00:48:31;94219.44;;;4.33;62.95
18201;BME280;9226;47.858;9.594;2023-04-15T00:50:56;94214.31;;;4.31;62.87
18201;BME280;9226;47.858;9.594;2023-04-15T00:53:22;94219.78;;;4.28;62.80
18201;BME280;9226;47.858;9.594;2023-04-15T00:55:48;94220.13;;;4.24;62.89
18201;BME280;9226;47.858;9.594;2023-04-15T00:58:13;94216.56;;;4.25;61.95
18201;BME280;9226;47.858;9.594;2023-04-15T01:00:39;94214.16;;;4.22;61.97
18201;BME280;9226;47.858;9.594;2023-04-15T01:03:05;94225.38;;;4.24;61.45
18201;BME280;9226;47.858;9.594;2023-04-15T01:05:31;94226.34;;;4.23;61.24
18201;BME280;9226;47.858;9.594;2023-04-15T01:07:57;94229.81;;;4.23;61.09
18201;BME280;9226;47.858;9.594;2023-04-15T01:10:22;94225.66;;;4.21;61.20
18201;BME280;9226;47.858;9.594;2023-04-15T01:12:48;94220.63;;;4.18;61.60
18201;BME280;9226;47.858;9.594;2023-04-15T01:15:13;94221.34;;;4.20;60.89
18201;BME280;9226;47.858;9.594;2023-04-15T01:17:40;94218.00;;;4.18;61.17
18201;BME280;9226;47.858;9.594;2023-04-15T01:20:06;94221.91;;;4.12;62.49
18201;BME280;9226;47.858;9.594;2023-04-15T01:22:34;94219.41;;;4.10;62.22
18201;BME280;9226;47.858;9.594;2023-04-15T01:25:14;94217.72;;;4.09;61.55
18201;BME280;9226;47.858;9.594;2023-04-15T01:27:42;94215.09;;;4.09;61.41
18201;BME280;9226;47.858;9.594;2023-04-15T01:30:08;94218.34;;;4.13;60.74
18201;BME280;9226;47.858;9.594;2023-04-15T01:32:34;94212.00;;;4.15;60.79
18201;BME280;9226;47.858;9.594;2023-04-15T01:35:00;94222.41;;;4.17;60.55
18201;BME280;9226;47.858;9.594;2023-04-15T01:37:26;94223.97;;;4.20;60.42
18201;BME280;9226;47.858;9.594;2023-04-15T01:39:51;94221.34;;;4.20;60.35
18201;BME280;9226;47.858;9.594;2023-04-15T01:42:17;94222.28;;;4.19;60.68
18201;BME280;9226;47.858;9.594;2023-04-15T01:44:42;94220.41;;;4.21;60.44
18201;BME280;9226;47.858;9.594;2023-04-15T01:47:07;94222.88;;;4.22;60.81
18201;BME280;9226;47.858;9.594;2023-04-15T01:49:33;94210.59;;;4.23;60.77
18201;BME280;9226;47.858;9.594;2023-04-15T01:51:58;94214.88;;;4.24;60.47
18201;BME280;9226;47.858;9.594;2023-04-15T01:54:25;94213.81;;;4.26;61.02
18201;BME280;9226;47.858;9.594;2023-04-15T01:56:51;94211.19;;;4.26;60.99
18201;BME280;9226;47.858;9.594;2023-04-15T01:59:16;94212.03;;;4.27;61.07
18201;BME280;9226;47.858;9.594;2023-04-15T02:01:42;94211.31;;;4.25;61.19
18201;BME280;9226;47.858;9.594;2023-04-15T02:04:09;94214.75;;;4.25;61.17
18201;BME280;9226;47.858;9.594;2023-04-15T02:06:43;94209.91;;;4.21;61.97
18201;BME280;9226;47.858;9.594;2023-04-15T02:09:09;94208.44;;;4.16;62.06
18201;BME280;9226;47.858;9.594;2023-04-15T02:11:35;94210.81;;;4.08;62.78
18201;BME280;9226;47.858;9.594;2023-04-15T02:14:02;94208.31;;;4.07;62.23
18201;BME280;9226;47.858;9.594;2023-04-15T02:16:31;94208.41;;;4.05;61.92
18201;BME280;9226;47.858;9.594;2023-04-15T02:18:56;94211.28;;;4.02;62.03
18201;BME280;9226;47.858;9.594;2023-04-15T02:21:22;94207.94;;;4.00;61.58
18201;BME280;9226;47.858;9.594;2023-04-15T02:23:47;94207.09;;;3.99;61.51
18201;BME280;9226;47.858;9.594;2023-04-15T02:26:13;94213.19;;;4.00;61.32
18201;BME280;9226;47.858;9.594;2023-04-15T02:28:38;94214.84;;;4.01;60.87
18201;BME280;9226;47.858;9.594;2023-04-15T02:31:05;94222.59;;;4.03;60.93
18201;BME280;9226;47.858;9.594;2023-04-15T02:33:31;94214.63;;;4.04;60.84
18201;BME280;9226;47.858;9.594;2023-04-15T02:35:56;94222.59;;;4.03;60.67
18201;BME280;9226;47.858;9.594;2023-04-15T02:38:22;94215.41;;;3.93;61.78
18201;BME280;9226;47.858;9.594;2023-04-15T02:40:47;94215.75;;;3.89;61.92
18201;BME280;9226;47.858;9.594;2023-04-15T02:43:14;94219.81;;;3.82;62.61
18201;BME280;9226;47.858;9.594;2023-04-15T02:45:41;94221.19;;;3.74;63.75
18201;BME280;9226;47.858;9.594;2023-04-15T02:48:07;94225.94;;;3.69;63.38
18201;BME280;9226;47.858;9.594;2023-04-15T02:50:33;94219.13;;;3.67;63.18
18201;BME280;9226;47.858;9.594;2023-04-15T02:52:58;94223.06;;;3.61;63.02
18201;BME280;9226;47.858;9.594;2023-04-15T02:55:25;94218.25;;;3.55;63.36
18201;BME280;9226;47.858;9.594;2023-04-15T02:57:51;94222.03;;;3.51;64.05
18201;BME280;9226;47.858;9.594;2023-04-15T03:00:16;94215.38;;;3.47;63.64
18201;BME280;9226;47.858;9.594;2023-04-15T03:02:41;94226.09;;;3.43;63.87
18201;BME280;9226;47.858;9.594;2023-04-15T03:05:11;94221.06;;;3.40;63.99
18201;BME280;9226;47.858;9.594;2023-04-15T03:07:36;94217.56;;;3.40;64.07
18201;BME280;9226;47.858;9.594;2023-04-15T03:10:02;94217.69;;;3.38;64.55
18201;BME280;9226;47.858;9.594;2023-04-15T03:12:27;94229.09;;;3.26;66.84
18201;BME280;9226;47.858;9.594;2023-04-15T03:14:54;94228.44;;;3.35;65.52
18201;BME280;9226;47.858;9.594;2023-04-15T03:17:20;94226.53;;;3.37;66.01
18201;BME280;9226;47.858;9.594;2023-04-15T03:19:45;94219.38;;;3.39;66.14
18201;BME280;9226;47.858;9.594;2023-04-15T03:22:11;94227.28;;;3.51;65.22
18201;BME280;9226;47.858;9.594;2023-04-15T03:24:36;94230.94;;;3.61;64.83
18201;BME280;9226;47.858;9.594;2023-04-15T03:27:02;94225.47;;;3.64;63.96
18201;BME280;9226;47.858;9.594;2023-04-15T03:29:27;94228.81;;;3.66;63.67
18201;BME280;9226;47.858;9.594;2023-04-15T03:31:52;94224.28;;;3.68;64.13
18201;BME280;9226;47.858;9.594;2023-04-15T03:34:18;94225.94;;;3.69;63.64
18201;BME280;9226;47.858;9.594;2023-04-15T03:36:43;94215.69;;;3.66;64.24
18201;BME280;9226;47.858;9.594;2023-04-15T03:39:09;94223.44;;;3.68;63.18
18201;BME280;9226;47.858;9.594;2023-04-15T03:41:34;94221.75;;;3.67;62.81
18201;BME280;9226;47.858;9.594;2023-04-15T03:44:00;94226.41;;;3.63;63.12
18201;BME280;9226;47.858;9.594;2023-04-15T03:46:25;94223.28;;;3.58;63.06
18201;BME280;9226;47.858;9.594;2023-04-15T03:48:50;94227.69;;;3.57;62.88
18201;BME280;9226;47.858;9.594;2023-04-15T03:51:16;94215.38;;;3.47;64.11
18201;BME280;9226;47.858;9.594;2023-04-15T03:53:41;94213.19;;;3.40;63.80
18201;BME280;9226;47.858;9.594;2023-04-15T03:56:07;94209.22;;;3.35;64.61
18201;BME280;9226;47.858;9.594;2023-04-15T03:58:32;94211.25;;;3.31;64.24
18201;BME280;9226;47.858;9.594;2023-04-15T04:00:57;94223.84;;;3.26;64.57
18201;BME280;9226;47.858;9.594;2023-04-15T04:03:23;94220.59;;;3.22;64.38
18201;BME280;9226;47.858;9.594;2023-04-15T04:05:49;94217.13;;;3.22;63.80
18201;BME280;9226;47.858;9.594;2023-04-15T04:08:15;94220.09;;;3.17;64.94
18201;BME280;9226;47.858;9.594;2023-04-15T04:10:41;94220.31;;;3.14;64.60
18201;BME280;9226;47.858;9.594;2023-04-15T04:13:06;94221.16;;;3.15;64.38
18201;BME280;9226;47.858;9.594;2023-04-15T04:15:32;94220.41;;;3.13;64.80
18201;BME280;9226;47.858;9.594;2023-04-15T04:17:57;94220.53;;;3.11;65.13
18201;BME280;9226;47.858;9.594;2023-04-15T04:20:23;94218.00;;;3.10;65.36
18201;BME280;9226;47.858;9.594;2023-04-15T04:22:48;94216.25;;;3.10;65.24
18201;BME280;9226;47.858;9.594;2023-04-15T04:25:14;94218.00;;;3.10;65.47
18201;BME280;9226;47.858;9.594;2023-04-15T04:27:39;94228.06;;;3.16;64.65
18201;BME280;9226;47.858;9.594;2023-04-15T04:30:05;94227.72;;;3.20;64.10
18201;BME280;9226;47.858;9.594;2023-04-15T04:32:31;94230.25;;;3.22;64.45
18201;BME280;9226;47.858;9.594;2023-04-15T04:34:56;94227.41;;;3.25;64.60
18201;BME280;9226;47.858;9.594;2023-04-15T04:37:22;94235.38;;;3.23;64.80
18201;BME280;9226;47.858;9.594;2023-04-15T04:39:48;94230.13;;;3.23;64.88
18201;BME280;9226;47.858;9.594;2023-04-15T04:42:14;94237.06;;;3.24;64.26
18201;BME280;9226;47.858;9.594;2023-04-15T04:44:39;94238.72;;;3.25;64.84
18201;BME280;9226;47.858;9.594;2023-04-15T04:47:04;94238.00;;;3.23;64.97
18201;BME280;9226;47.858;9.594;2023-04-15T04:49:31;94237.66;;;3.28;64.70
18201;BME280;9226;47.858;9.594;2023-04-15T04:51:57;94239.47;;;3.28;65.87
18201;BME280;9226;47.858;9.594;2023-04-15T04:54:22;94241.53;;;3.35;65.30
18201;BME280;9226;47.858;9.594;2023-04-15T04:56:48;94247.28;;;3.40;65.44
18201;BME280;9226;47.858;9.594;2023-04-15T04:59:13;94250.19;;;3.49;65.32
18201;BME280;9226;47.858;9.594;2023-04-15T05:01:39;94249.50;;;3.58;64.46
18201;BME280;9226;47.858;9.594;2023-04-15T05:04:05;94242.91;;;3.52;66.13
18201;BME280;9226;47.858;9.594;2023-04-15T05:06:32;94243.66;;;3.54;66.94
18201;BME280;9226;47.858;9.594;2023-04-15T05:08:57;94249.06;;;3.64;65.87
18201;BME280;9226;47.858;9.594;2023-04-15T05:11:22;94245.88;;;3.72;65.85
18201;BME280;9226;47.858;9.594;2023-04-15T05:13:48;94249.38;;;3.84;65.47
18201;BME280;9226;47.858;9.594;2023-04-15T05:16:14;94245.13;;;3.94;65.90
18201;BME280;9226;47.858;9.594;2023-04-15T05:18:39;94245.41;;;4.13;65.87
18201;BME280;9226;47.858;9.594;2023-04-15T05:21:05;94247.16;;;4.37;65.29
18201;BME280;9226;47.858;9.594;2023-04-15T05:23:31;94245.13;;;4.52;65.51
18201;BME280;9226;47.858;9.594;2023-04-15T05:25:56;94249.31;;;4.77;65.24
18201;BME280;9226;47.858;9.594;2023-04-15T05:28:21;94240.97;;;4.95;65.15
18201;BME280;9226;47.858;9.594;2023-04-15T05:30:47;94244.63;;;5.37;64.49
18201;BME280;9226;47.858;9.594;2023-04-15T05:33:12;94242.81;;;5.82;64.85
18201;BME280;9226;47.858;9.594;2023-04-15T05:35:38;94242.91;;;6.45;63.63
18201;BME280;9226;47.858;9.594;2023-04-15T05:38:03;94239.72;;;7.03;61.60
18201;BME280;9226;47.858;9.594;2023-04-15T05:40:29;94243.31;;;7.42;60.35
18201;BME280;9226;47.858;9.594;2023-04-15T05:42:55;94232.44;;;8.06;58.66
18201;BME280;9226;47.858;9.594;2023-04-15T05:45:21;94231.56;;;8.64;57.86
18201;BME280;9226;47.858;9.594;2023-04-15T05:47:46;94229.47;;;9.43;57.37
18201;BME280;9226;47.858;9.594;2023-04-15T05:50:11;94232.41;;;10.03;55.41
18201;BME280;9226;47.858;9.594;2023-04-15T05:52:37;94241.50;;;10.81;52.79
18201;BME280;9226;47.858;9.594;2023-04-15T05:55:02;94229.34;;;11.73;50.57
18201;BME280;9226;47.858;9.594;2023-04-15T05:57:28;94236.25;;;12.01;49.06
18201;BME280;9226;47.858;9.594;2023-04-15T05:59:53;94229.47;;;12.39;47.22
18201;BME280;9226;47.858;9.594;2023-04-15T06:02:19;94233.47;;;12.43;46.27
18201;BME280;9226;47.858;9.594;2023-04-15T06:04:45;94238.81;;;12.43;45.98
18201;BME280;9226;47.858;9.594;2023-04-15T06:07:10;94234.59;;;12.08;45.75
18201;BME280;9226;47.858;9.594;2023-04-15T06:09:36;94225.53;;;11.84;45.19
18201;BME280;9226;47.858;9.594;2023-04-15T06:12:01;94231.81;;;11.67;46.09
18201;BME280;9226;47.858;9.594;2023-04-15T06:14:27;94239.50;;;11.35;46.31
18201;BME280;9226;47.858;9.594;2023-04-15T06:16:53;94242.16;;;11.01;45.67
18201;BME280;9226;47.858;9.594;2023-04-15T06:19:18;94239.34;;;11.02;46.81
18201;BME280;9226;47.858;9.594;2023-04-15T06:21:44;94240.81;;;11.05;47.34
18201;BME280;9226;47.858;9.594;2023-04-15T06:24:11;94243.78;;;11.02;47.85
18201;BME280;9226;47.858;9.594;2023-04-15T06:26:36;94242.75;;;10.68;48.15
18201;BME280;9226;47.858;9.594;2023-04-15T06:29:01;94245.44;;;10.77;47.78
18201;BME280;9226;47.858;9.594;2023-04-15T06:31:27;94243.22;;;10.90;47.58
18201;BME280;9226;47.858;9.594;2023-04-15T06:33:52;94250.56;;;10.96;48.05
18201;BME280;9226;47.858;9.594;2023-04-15T06:36:18;94250.25;;;10.99;47.49
18201;BME280;9226;47.858;9.594;2023-04-15T06:38:43;94254.31;;;11.12;47.45
18201;BME280;9226;47.858;9.594;2023-04-15T06:41:08;94252.78;;;11.35;47.24
18201;BME280;9226;47.858;9.594;2023-04-15T06:43:34;94251.47;;;11.39;46.85
18201;BME280;9226;47.858;9.594;2023-04-15T06:45:59;94268.19;;;11.74;46.79
18201;BME280;9226;47.858;9.594;2023-04-15T06:48:25;94257.41;;;11.76;46.49
18201;BME280;9226;47.858;9.594;2023-04-15T06:50:51;94257.69;;;11.99;45.97
18201;BME280;9226;47.858;9.594;2023-04-15T06:53:17;94263.56;;;12.36;45.50
18201;BME280;9226;47.858;9.594;2023-04-15T06:55:43;94262.91;;;12.42;45.27
18201;BME280;9226;47.858;9.594;2023-04-15T06:58:08;94259.41;;;12.99;44.73
18201;BME280;9226;47.858;9.594;2023-04-15T07:00:34;94250.66;;;13.46;43.92
18201;BME280;9226;47.858;9.594;2023-04-15T07:02:59;94254.66;;;13.82;43.45
18201;BME280;9226;47.858;9.594;2023-04-15T07:05:28;94258.91;;;14.07;42.99
18201;BME280;9226;47.858;9.594;2023-04-15T07:07:53;94254.72;;;14.36;42.28
18201;BME280;9226;47.858;9.594;2023-04-15T07:10:19;94250.88;;;14.85;41.60
18201;BME280;9226;47.858;9.594;2023-04-15T07:12:44;94258.63;;;15.10;41.89
18201;BME280;9226;47.858;9.594;2023-04-15T07:15:10;94250.78;;;15.61;40.96
18201;BME280;9226;47.858;9.594;2023-04-15T07:17:36;94249.50;;;16.23;39.85
18201;BME280;9226;47.858;9.594;2023-04-15T07:20:02;94246.59;;;16.83;38.89
18201;BME280;9226;47.858;9.594;2023-04-15T07:22:29;94248.28;;;17.12;37.47
18201;BME280;9226;47.858;9.594;2023-04-15T07:24:54;94242.03;;;17.62;36.45
18201;BME280;9226;47.858;9.594;2023-04-15T07:27:19;94239.69;;;17.52;36.03
18201;BME280;9226;47.858;9.594;2023-04-15T07:29:45;94248.25;;;18.04;35.17
18201;BME280;9226;47.858;9.594;2023-04-15T07:32:10;94240.25;;;18.17;35.05
18201;BME280;9226;47.858;9.594;2023-04-15T07:34:36;94239.09;;;17.57;33.77
18201;BME280;9226;47.858;9.594;2023-04-15T07:37:02;94237.22;;;17.85;34.23
18201;BME280;9226;47.858;9.594;2023-04-15T07:39:27;94240.41;;;17.04;34.24
18201;BME280;9226;47.858;9.594;2023-04-15T07:41:54;94247.34;;;16.34;34.48
18201;BME280;9226;47.858;9.594;2023-04-15T07:44:19;94235.94;;;16.25;35.99
18201;BME280;9226;47.858;9.594;2023-04-15T07:46:45;94237.28;;;16.36;36.27
18201;BME280;9226;47.858;9.594;2023-04-15T07:49:10;94234.44;;;16.01;37.08
18201;BME280;9226;47.858;9.594;2023-04-15T07:51:36;94232.47;;;16.09;37.42
18201;BME280;9226;47.858;9.594;2023-04-15T07:54:02;94230.41;;;15.45;38.56
18201;BME280;9226;47.858;9.594;2023-04-15T07:56:28;94232.44;;;15.58;38.80
18201;BME280;9226;47.858;9.594;2023-04-15T07:58:53;94227.63;;;15.24;39.49
18201;BME280;9226;47.858;9.594;2023-04-15T08:01:19;94238.19;;;14.41;41.04
18201;BME280;9226;47.858;9.594;2023-04-15T08:03:44;94236.19;;;15.19;40.56
18201;BME280;9226;47.858;9.594;2023-04-15T08:06:09;94227.25;;;15.12;40.27
18201;BME280;9226;47.858;9.594;2023-04-15T08:08:35;94229.84;;;15.50;39.70
18201;BME280;9226;47.858;9.594;2023-04-15T08:11:00;94233.28;;;13.98;42.42
18201;BME280;9226;47.858;9.594;2023-04-15T08:13:26;94229.28;;;14.48;41.68
18201;BME280;9226;47.858;9.594;2023-04-15T08:18:39;94228.69;;;14.38;41.98
18201;BME280;9226;47.858;9.594;2023-04-15T08:21:04;94236.50;;;14.40;41.92
18201;BME280;9226;47.858;9.594;2023-04-15T08:23:30;94226.22;;;13.74;42.95
18201;BME280;9226;47.858;9.594;2023-04-15T08:25:56;94230.59;;;13.67;43.55
18201;BME280;9226;47.858;9.594;2023-04-15T08:28:22;94237.44;;;12.89;45.51
18201;BME280;9226;47.858;9.594;2023-04-15T08:30:47;94231.63;;;13.01;45.57
18201;BME280;9226;47.858;9.594;2023-04-15T08:33:13;94231.13;;;12.57;46.48
18201;BME280;9226;47.858;9.594;2023-04-15T08:35:38;94232.41;;;13.10;45.71
18201;BME280;9226;47.858;9.594;2023-04-15T08:38:04;94230.72;;;13.34;45.17
18201;BME280;9226;47.858;9.594;2023-04-15T08:40:38;94229.38;;;13.38;44.89
18201;BME280;9226;47.858;9.594;2023-04-15T08:43:06;94227.41;;;13.15;45.16
18201;BME280;9226;47.858;9.594;2023-04-15T08:45:33;94228.06;;;13.26;45.00
18201;BME280;9226;47.858;9.594;2023-04-15T08:48:02;94229.75;;;13.10;45.38
18201;BME280;9226;47.858;9.594;2023-04-15T08:50:31;94230.47;;;12.88;46.41
18201;BME280;9226;47.858;9.594;2023-04-15T08:52:58;94231.44;;;13.11;45.77
18201;BME280;9226;47.858;9.594;2023-04-15T08:55:26;94231.16;;;12.73;46.07
18201;BME280;9226;47.858;9.594;2023-04-15T08:57:54;94227.81;;;12.88;45.78
18201;BME280;9226;47.858;9.594;2023-04-15T09:00:21;94226.03;;;13.28;45.75
18201;BME280;9226;47.858;9.594;2023-04-15T09:02:47;94234.22;;;13.18;46.75
18201;BME280;9226;47.858;9.594;2023-04-15T09:05:13;94234.69;;;13.30;46.27
18201;BME280;9226;47.858;9.594;2023-04-15T09:07:38;94231.31;;;13.52;45.29
18201;BME280;9226;47.858;9.594;2023-04-15T09:10:04;94237.91;;;13.73;45.58
18201;BME280;9226;47.858;9.594;2023-04-15T09:12:30;94236.16;;;13.88;44.84
18201;BME280;9226;47.858;9.594;2023-04-15T09:14:56;94235.38;;;14.11;44.83
18201;BME280;9226;47.858;9.594;2023-04-15T09:17:21;94242.97;;;14.22;44.51
18201;BME280;9226;47.858;9.594;2023-04-15T09:19:49;94236.91;;;14.60;43.84
18201;BME280;9226;47.858;9.594;2023-04-15T09:22:19;94238.66;;;14.68;43.54
18201;BME280;9226;47.858;9.594;2023-04-15T09:24:45;94243.22;;;14.82;43.35
18201;BME280;9226;47.858;9.594;2023-04-15T09:27:15;94244.81;;;14.91;42.78
18201;BME280;9226;47.858;9.594;2023-04-15T09:29:40;94242.25;;;14.75;42.55
18201;BME280;9226;47.858;9.594;2023-04-15T09:32:14;94242.16;;;15.06;42.07
18201;BME280;9226;47.858;9.594;2023-04-15T09:34:39;94237.94;;;15.42;41.91
18201;BME280;9226;47.858;9.594;2023-04-15T09:37:05;94238.75;;;15.27;41.60
18201;BME280;9226;47.858;9.594;2023-04-15T09:42:12;94240.84;;;15.02;41.60
18201;BME280;9226;47.858;9.594;2023-04-15T09:44:37;94243.84;;;15.52;41.09
18201;BME280;9226;47.858;9.594;2023-04-15T09:47:03;94241.66;;;15.85;41.40
18201;BME280;9226;47.858;9.594;2023-04-15T09:49:28;94245.13;;;16.01;40.09
18201;BME280;9226;47.858;9.594;2023-04-15T09:51:58;94242.25;;;16.39;39.44
18201;BME280;9226;47.858;9.594;2023-04-15T09:54:32;94243.44;;;16.36;39.91
18201;BME280;9226;47.858;9.594;2023-04-15T09:57:04;94241.19;;;16.55;39.38
18201;BME280;9226;47.858;9.594;2023-04-15T09:59:30;94237.53;;;16.62;39.46
18201;BME280;9226;47.858;9.594;2023-04-15T10:01:56;94240.69;;;16.88;38.83
18201;BME280;9226;47.858;9.594;2023-04-15T10:04:21;94237.13;;;17.09;39.33
18201;BME280;9226;47.858;9.594;2023-04-15T10:06:47;94244.38;;;16.87;38.70
18201;BME280;9226;47.858;9.594;2023-04-15T10:09:13;94241.03;;;16.85;38.22
18201;BME280;9226;47.858;9.594;2023-04-15T10:11:39;94237.88;;;16.53;38.52
18201;BME280;9226;47.858;9.594;2023-04-15T10:14:05;94240.59;;;16.59;38.68
18201;BME280;9226;47.858;9.594;2023-04-15T10:16:32;94244.59;;;16.27;39.26
18201;BME280;9226;47.858;9.594;2023-04-15T10:19:01;94238.19;;;16.06;39.83
18201;BME280;9226;47.858;9.594;2023-04-15T10:21:27;94239.13;;;15.54;40.06
18201;BME280;9226;47.858;9.594;2023-04-15T10:23:52;94237.88;;;15.50;40.15
18201;BME280;9226;47.858;9.594;2023-04-15T10:26:18;94247.72;;;15.34;40.79
18201;BME280;9226;47.858;9.594;2023-04-15T10:28:44;94240.06;;;15.61;40.45
18201;BME280;9226;47.858;9.594;2023-04-15T10:31:14;94258.69;;;15.40;40.91
18201;BME280;9226;47.858;9.594;2023-04-15T10:33:40;94243.00;;;15.36;41.95
18201;BME280;9226;47.858;9.594;2023-04-15T10:36:07;94248.53;;;15.20;41.62
18201;BME280;9226;47.858;9.594;2023-04-15T10:38:40;94252.13;;;15.12;42.21
18201;BME280;9226;47.858;9.594;2023-04-15T10:41:13;94249.84;;;15.54;40.89
18201;BME280;9226;47.858;9.594;2023-04-15T10:43:46;94249.63;;;15.26;40.82
18201;BME280;9226;47.858;9.594;2023-04-15T10:46:12;94250.78;;;15.61;41.32
18201;BME280;9226;47.858;9.594;2023-04-15T10:48:37;94254.16;;;16.36;41.55
18201;BME280;9226;47.858;9.594;2023-04-15T10:51:03;94247.63;;;16.39;40.36
18201;BME280;9226;47.858;9.594;2023-04-15T10:53:29;94248.75;;;17.16;39.04
18201;BME280;9226;47.858;9.594;2023-04-15T10:55:56;94251.28;;;17.24;38.61
18201;BME280;9226;47.858;9.594;2023-04-15T10:58:23;94248.97;;;18.33;37.35
18201;BME280;9226;47.858;9.594;2023-04-15T11:00:52;94252.56;;;18.73;35.83
18201;BME280;9226;47.858;9.594;2023-04-15T11:03:36;94242.97;;;18.24;35.56
18201;BME280;9226;47.858;9.594;2023-04-15T11:06:03;94244.44;;;18.40;35.37
18201;BME280;9226;47.858;9.594;2023-04-15T11:08:54;94243.66;;;18.53;34.18
18201;BME280;9226;47.858;9.594;2023-04-15T11:11:21;94253.91;;;18.22;34.51
18201;BME280;9226;47.858;9.594;2023-04-15T11:13:50;94240.47;;;18.22;34.46
18201;BME280;9226;47.858;9.594;2023-04-15T11:16:16;94239.88;;;18.34;34.71
18201;BME280;9226;47.858;9.594;2023-04-15T11:18:52;94239.16;;;18.80;34.29
18201;BME280;9226;47.858;9.594;2023-04-15T11:21:18;94245.94;;;18.49;33.64
18201;BME280;9226;47.858;9.594;2023-04-15T11:23:44;94246.06;;;18.27;34.10
18201;BME280;9226;47.858;9.594;2023-04-15T11:26:12;94244.53;;;18.05;34.58
18201;BME280;9226;47.858;9.594;2023-04-15T11:28:39;94252.53;;;17.92;34.22
18201;BME280;9226;47.858;9.594;2023-04-15T11:31:07;94256.47;;;17.96;34.00
18201;BME280;9226;47.858;9.594;2023-04-15T11:33:34;94252.78;;;17.62;33.18
18201;BME280;9226;47.858;9.594;2023-04-15T11:36:00;94249.94;;;17.70;33.45
18201;BME280;9226;47.858;9.594;2023-04-15T11:38:26;94249.44;;;17.60;34.29
18201;BME280;9226;47.858;9.594;2023-04-15T11:40:52;94253.63;;;18.04;33.67
18201;BME280;9226;47.858;9.594;2023-04-15T11:43:21;94254.38;;;18.39;33.72
18201;BME280;9226;47.858;9.594;2023-04-15T11:48:18;94251.03;;;18.31;32.25
18201;BME280;9226;47.858;9.594;2023-04-15T11:50:43;94256.38;;;18.17;32.08
18201;BME280;9226;47.858;9.594;2023-04-15T11:53:11;94262.53;;;18.11;31.37
18201;BME280;9226;47.858;9.594;2023-04-15T11:55:49;94266.00;;;18.05;31.40
18201;BME280;9226;47.858;9.594;2023-04-15T12:03:25;94280.84;;;17.38;32.44
18201;BME280;9226;47.858;9.594;2023-04-15T12:06:17;94284.25;;;17.25;32.91
18201;BME280;9226;47.858;9.594;2023-04-15T12:08:48;94274.16;;;17.55;33.03
18201;BME280;9226;47.858;9.594;2023-04-15T12:11:14;94288.50;;;17.69;33.80
18201;BME280;9226;47.858;9.594;2023-04-15T12:13:45;94292.44;;;17.16;33.29
18201;BME280;9226;47.858;9.594;2023-04-15T12:16:11;94298.09;;;17.00;33.81
18201;BME280;9226;47.858;9.594;2023-04-15T12:18:37;94301.44;;;16.87;34.26
18201;BME280;9226;47.858;9.594;2023-04-15T12:21:09;94307.47;;;16.89;33.94
18201;BME280;9226;47.858;9.594;2023-04-15T12:23:46;94309.78;;;16.77;34.69
18201;BME280;9226;47.858;9.594;2023-04-15T12:26:12;94305.94;;;16.43;34.56
18201;BME280;9226;47.858;9.594;2023-04-15T12:28:39;94316.00;;;16.41;34.22
18201;BME280;9226;47.858;9.594;2023-04-15T12:31:07;94318.50;;;16.28;34.22
18201;BME280;9226;47.858;9.594;2023-04-15T12:33:34;94321.63;;;16.32;34.92
18201;BME280;9226;47.858;9.594;2023-04-15T12:35:59;94314.72;;;16.37;35.06
18201;BME280;9226;47.858;9.594;2023-04-15T12:38:25;94322.75;;;16.37;35.78
18201;BME280;9226;47.858;9.594;2023-04-15T12:40:50;94325.97;;;16.33;35.18
18201;BME280;9226;47.858;9.594;2023-04-15T12:43:16;94322.41;;;16.10;35.26
18201;BME280;9226;47.858;9.594;2023-04-15T12:45:41;94322.53;;;16.02;35.44
18201;BME280;9226;47.858;9.594;2023-04-15T12:48:06;94326.56;;;16.13;35.19
18201;BME280;9226;47.858;9.594;2023-04-15T12:50:34;94326.09;;;16.24;35.71
18201;BME280;9226;47.858;9.594;2023-04-15T12:52:59;94340.56;;;16.30;36.05
18201;BME280;9226;47.858;9.594;2023-04-15T12:55:25;94338.47;;;16.62;36.05
18201;BME280;9226;47.858;9.594;2023-04-15T12:57:50;94338.25;;;16.42;35.77
18201;BME280;9226;47.858;9.594;2023-04-15T13:00:16;94337.22;;;16.79;35.45
18201;BME280;9226;47.858;9.594;2023-04-15T13:02:45;94336.47;;;17.07;35.70
18201;BME280;9226;47.858;9.594;2023-04-15T13:05:10;94344.00;;;17.18;35.14
18201;BME280;9226;47.858;9.594;2023-04-15T13:07:38;94336.63;;;17.49;35.66
18201;BME280;9226;47.858;9.594;2023-04-15T13:10:04;94335.84;;;17.83;35.26
18201;BME280;9226;47.858;9.594;2023-04-15T13:12:30;94325.41;;;17.88;33.73
18201;BME280;9226;47.858;9.594;2023-04-15T13:14:57;94331.31;;;17.84;33.02
18201;BME280;9226;47.858;9.594;2023-04-15T13:17:22;94330.81;;;17.73;33.17
18201;BME280;9226;47.858;9.594;2023-04-15T13:19:47;94334.28;;;17.96;34.06
18201;BME280;9226;47.858;9.594;2023-04-15T13:22:13;94334.78;;;18.06;33.74
18201;BME280;9226;47.858;9.594;2023-04-15T13:24:39;94338.38;;;17.92;33.34